sensor_id;sensor_type;location;lat;lon;timestamp;pressure;altitude;pressure_sealevel;temperature;humidity
79703;BME280;69172;52.352;5.006;2023-05-16T00:01:32;102050.44;;;8.32;76.34
79703;BME280;69172;52.352;5.006;2023-05-16T00:03:59;102051.50;;;8.34;76.34
79703;BME280;69172;52.352;5.006;2023-05-16T00:06:25;102051.34;;;8.32;76.83
79703;BME280;69172;52.352;5.006;2023-05-16T00:08:50;102052.75;;;8.29;76.26
79703;BME280;69172;52.352;5.006;2023-05-16T00:11:16;102048.41;;;8.28;77.05
79703;BME280;69172;52.352;5.006;2023-05-16T00:13:41;102056.56;;;8.24;76.56
79703;BME280;69172;52.352;5.006;2023-05-16T00:16:07;102055.56;;;8.22;77.29
79703;BME280;69172;52.352;5.006;2023-05-16T00:18:33;102058.66;;;8.18;76.93
79703;BME280;69172;52.352;5.006;2023-05-16T00:21:02;102049.00;;;8.15;76.06
79703;BME280;69172;52.352;5.006;2023-05-16T00:23:29;102057.75;;;8.17;76.94
79703;BME280;69172;52.352;5.006;2023-05-16T00:25:54;102051.56;;;8.15;76.88
79703;BME280;69172;52.352;5.006;2023-05-16T00:28:20;102060.16;;;8.16;76.83
79703;BME280;69172;52.352;5.006;2023-05-16T00:30:45;102048.00;;;8.13;77.18
79703;BME280;69172;52.352;5.006;2023-05-16T00:33:10;102047.22;;;8.14;76.18
79703;BME280;69172;52.352;5.006;2023-05-16T00:35:36;102057.47;;;8.14;77.54
79703;BME280;69172;52.352;5.006;2023-05-16T00:38:01;102049.66;;;8.13;77.16
79703;BME280;69172;52.352;5.006;2023-05-16T00:40:26;102057.47;;;8.14;76.91
79703;BME280;69172;52.352;5.006;2023-05-16T00:42:52;102045.94;;;8.09;76.85
79703;BME280;69172;52.352;5.006;2023-05-16T00:45:17;102054.66;;;8.11;76.73
79703;BME280;69172;52.352;5.006;2023-05-16T00:47:43;102053.00;;;8.12;76.43
79703;BME280;69172;52.352;5.006;2023-05-16T00:50:09;102046.22;;;8.12;76.89
79703;BME280;69172;52.352;5.006;2023-05-16T00:52:34;102056.69;;;8.15;77.50
79703;BME280;69172;52.352;5.006;2023-05-16T00:55:01;102053.25;;;8.15;77.19
79703;BME280;69172;52.352;5.006;2023-05-16T00:57:26;102058.22;;;8.13;77.12
79703;BME280;69172;52.352;5.006;2023-05-16T00:59:52;102052.09;;;8.11;76.88
79703;BME280;69172;52.352;5.006;2023-05-16T01:02:18;102046.72;;;8.08;77.71
79703;BME280;69172;52.352;5.006;2023-05-16T01:04:45;102057.97;;;8.10;77.87
79703;BME280;69172;52.352;5.006;2023-05-16T01:07:12;102053.50;;;8.08;77.26
79703;BME280;69172;52.352;5.006;2023-05-16T01:09:38;102061.31;;;8.09;77.16
79703;BME280;69172;52.352;5.006;2023-05-16T01:12:13;102061.31;;;8.09;77.51
79703;BME280;69172;52.352;5.006;2023-05-16T01:15:03;102059.41;;;8.07;77.45
79703;BME280;69172;52.352;5.006;2023-05-16T01:20:48;102055.53;;;8.02;77.34
79703;BME280;69172;52.352;5.006;2023-05-16T01:26:06;102053.75;;;8.01;77.63
79703;BME280;69172;52.352;5.006;2023-05-16T01:28:32;102057.22;;;8.01;77.78
79703;BME280;69172;52.352;5.006;2023-05-16T01:30:59;102051.94;;;8.00;77.37
79703;BME280;69172;52.352;5.006;2023-05-16T01:33:24;102052.84;;;8.00;78.09
79703;BME280;69172;52.352;5.006;2023-05-16T01:36:12;102055.28;;;7.99;77.52
79703;BME280;69172;52.352;5.006;2023-05-16T01:39:00;102061.28;;;7.99;77.18
79703;BME280;69172;52.352;5.006;2023-05-16T01:41:34;102057.06;;;8.00;77.74
79703;BME280;69172;52.352;5.006;2023-05-16T01:44:12;102063.09;;;8.00;77.17
79703;BME280;69172;52.352;5.006;2023-05-16T01:46:42;102056.44;;;8.02;76.71
79703;BME280;69172;52.352;5.006;2023-05-16T01:49:16;102057.22;;;8.01;76.85
79703;BME280;69172;52.352;5.006;2023-05-16T01:51:49;102052.84;;;8.00;76.43
79703;BME280;69172;52.352;5.006;2023-05-16T01:54:16;102064.25;;;8.04;76.77
79703;BME280;69172;52.352;5.006;2023-05-16T01:56:55;102071.31;;;8.06;76.36
79703;BME280;69172;52.352;5.006;2023-05-16T01:59:22;102064.91;;;8.01;76.61
79703;BME280;69172;52.352;5.006;2023-05-16T02:01:48;102065.16;;;8.04;76.13
79703;BME280;69172;52.352;5.006;2023-05-16T02:04:13;102067.19;;;8.08;76.50
79703;BME280;69172;52.352;5.006;2023-05-16T02:06:40;102066.03;;;8.05;76.60
79703;BME280;69172;52.352;5.006;2023-05-16T02:09:06;102070.53;;;8.07;76.53
79703;BME280;69172;52.352;5.006;2023-05-16T02:11:32;102062.84;;;8.07;76.24
79703;BME280;69172;52.352;5.006;2023-05-16T02:13:58;102070.66;;;8.09;75.82
79703;BME280;69172;52.352;5.006;2023-05-16T02:16:23;102069.75;;;8.08;76.92
79703;BME280;69172;52.352;5.006;2023-05-16T02:18:49;102071.41;;;8.08;77.20
79703;BME280;69172;52.352;5.006;2023-05-16T02:21:14;102070.66;;;8.09;77.13
79703;BME280;69172;52.352;5.006;2023-05-16T02:23:40;102066.44;;;8.09;76.67
79703;BME280;69172;52.352;5.006;2023-05-16T02:26:05;102067.19;;;8.08;76.89
79703;BME280;69172;52.352;5.006;2023-05-16T02:28:31;102061.19;;;8.08;77.06
79703;BME280;69172;52.352;5.006;2023-05-16T02:30:59;102064.53;;;8.07;77.03
79703;BME280;69172;52.352;5.006;2023-05-16T02:33:26;102072.69;;;8.03;76.75
79703;BME280;69172;52.352;5.006;2023-05-16T02:35:53;102071.03;;;8.03;76.67
79703;BME280;69172;52.352;5.006;2023-05-16T02:38:18;102069.25;;;8.02;77.04
79703;BME280;69172;52.352;5.006;2023-05-16T02:40:48;102072.59;;;8.01;75.65
79703;BME280;69172;52.352;5.006;2023-05-16T02:43:14;102080.13;;;8.00;76.66
79703;BME280;69172;52.352;5.006;2023-05-16T02:45:39;102080.75;;;7.97;75.42
79703;BME280;69172;52.352;5.006;2023-05-16T02:48:05;102082.41;;;7.97;76.04
79703;BME280;69172;52.352;5.006;2023-05-16T02:50:39;102077.66;;;7.91;76.36
79703;BME280;69172;52.352;5.006;2023-05-16T02:53:04;102094.97;;;7.94;76.67
79703;BME280;69172;52.352;5.006;2023-05-16T02:55:30;102091.38;;;7.92;76.84
79703;BME280;69172;52.352;5.006;2023-05-16T02:57:55;102088.81;;;7.92;76.28
79703;BME280;69172;52.352;5.006;2023-05-16T03:00:21;102096.50;;;7.92;76.49
79703;BME280;69172;52.352;5.006;2023-05-16T03:02:47;102087.16;;;7.92;76.25
79703;BME280;69172;52.352;5.006;2023-05-16T03:05:13;102092.28;;;7.92;76.89
79703;BME280;69172;52.352;5.006;2023-05-16T03:07:38;102086.41;;;7.93;75.58
79703;BME280;69172;52.352;5.006;2023-05-16T03:10:04;102091.53;;;7.93;75.62
79703;BME280;69172;52.352;5.006;2023-05-16T03:12:30;102094.84;;;7.92;75.76
79703;BME280;69172;52.352;5.006;2023-05-16T03:14:55;102087.69;;;7.98;75.30
79703;BME280;69172;52.352;5.006;2023-05-16T03:17:21;102094.97;;;7.94;75.60
79703;BME280;69172;52.352;5.006;2023-05-16T03:19:47;102098.56;;;7.96;76.01
79703;BME280;69172;52.352;5.006;2023-05-16T03:22:13;102092.44;;;8.04;74.84
79703;BME280;69172;52.352;5.006;2023-05-16T03:24:38;102090.16;;;8.07;74.95
79703;BME280;69172;52.352;5.006;2023-05-16T03:27:04;102095.00;;;8.14;74.23
79703;BME280;69172;52.352;5.006;2023-05-16T03:29:30;102093.34;;;8.14;75.18
79703;BME280;69172;52.352;5.006;2023-05-16T03:31:55;102094.63;;;8.19;74.59
79703;BME280;69172;52.352;5.006;2023-05-16T03:34:21;102102.22;;;8.18;74.39
79703;BME280;69172;52.352;5.006;2023-05-16T03:36:48;102099.00;;;8.20;73.90
79703;BME280;69172;52.352;5.006;2023-05-16T03:39:13;102093.19;;;8.13;74.77
79703;BME280;69172;52.352;5.006;2023-05-16T03:41:39;102094.91;;;8.12;74.58
79703;BME280;69172;52.352;5.006;2023-05-16T03:44:05;102097.31;;;8.11;74.84
79703;BME280;69172;52.352;5.006;2023-05-16T03:46:30;102099.13;;;8.12;75.07
79703;BME280;69172;52.352;5.006;2023-05-16T03:48:55;102110.00;;;8.09;74.88
79703;BME280;69172;52.352;5.006;2023-05-16T03:51:21;102101.91;;;8.05;74.56
79703;BME280;69172;52.352;5.006;2023-05-16T03:53:46;102112.56;;;8.09;74.80
79703;BME280;69172;52.352;5.006;2023-05-16T03:56:11;102115.75;;;8.07;74.77
79703;BME280;69172;52.352;5.006;2023-05-16T03:58:37;102113.06;;;8.05;75.11
79703;BME280;69172;52.352;5.006;2023-05-16T04:01:02;102105.50;;;8.07;74.41
79703;BME280;69172;52.352;5.006;2023-05-16T04:03:28;102111.03;;;8.11;74.73
79703;BME280;69172;52.352;5.006;2023-05-16T04:05:54;102109.84;;;8.08;74.84
79703;BME280;69172;52.352;5.006;2023-05-16T04:08:20;102111.13;;;8.13;74.47
79703;BME280;69172;52.352;5.006;2023-05-16T04:10:46;102111.13;;;8.13;74.80
79703;BME280;69172;52.352;5.006;2023-05-16T04:13:13;102107.81;;;8.14;74.54
79703;BME280;69172;52.352;5.006;2023-05-16T04:15:51;102113.69;;;8.13;75.05
79703;BME280;69172;52.352;5.006;2023-05-16T04:18:16;102110.28;;;8.12;75.17
79703;BME280;69172;52.352;5.006;2023-05-16T04:20:42;102109.63;;;8.15;74.68
79703;BME280;69172;52.352;5.006;2023-05-16T04:23:08;102121.53;;;8.14;74.92
79703;BME280;69172;52.352;5.006;2023-05-16T04:25:36;102124.63;;;8.20;74.88
79703;BME280;69172;52.352;5.006;2023-05-16T04:28:01;102112.31;;;8.16;74.94
79703;BME280;69172;52.352;5.006;2023-05-16T04:30:28;102116.16;;;8.21;74.96
79703;BME280;69172;52.352;5.006;2023-05-16T04:32:53;102121.81;;;8.17;75.26
79703;BME280;69172;52.352;5.006;2023-05-16T04:35:19;102119.09;;;8.16;75.24
79703;BME280;69172;52.352;5.006;2023-05-16T04:37:45;102132.59;;;8.23;74.61
79703;BME280;69172;52.352;5.006;2023-05-16T04:40:11;102137.56;;;8.22;74.94
79703;BME280;69172;52.352;5.006;2023-05-16T04:42:37;102136.31;;;8.27;74.90
79703;BME280;69172;52.352;5.006;2023-05-16T04:45:02;102134.78;;;8.29;74.68
79703;BME280;69172;52.352;5.006;2023-05-16T04:47:31;102133.91;;;8.28;74.74
79703;BME280;69172;52.352;5.006;2023-05-16T04:49:56;102132.47;;;8.32;74.45
79703;BME280;69172;52.352;5.006;2023-05-16T04:52:21;102137.09;;;8.36;74.26
79703;BME280;69172;52.352;5.006;2023-05-16T04:54:49;102137.47;;;8.41;74.37
79703;BME280;69172;52.352;5.006;2023-05-16T04:57:16;102143.63;;;8.43;74.08
79703;BME280;69172;52.352;5.006;2023-05-16T04:59:41;102140.69;;;8.48;73.49
79703;BME280;69172;52.352;5.006;2023-05-16T05:02:07;102145.97;;;8.50;73.88
79703;BME280;69172;52.352;5.006;2023-05-16T05:04:32;102146.97;;;8.52;73.71
79703;BME280;69172;52.352;5.006;2023-05-16T05:06:58;102153.13;;;8.54;73.79
79703;BME280;69172;52.352;5.006;2023-05-16T05:09:24;102149.91;;;8.56;73.93
79703;BME280;69172;52.352;5.006;2023-05-16T05:11:50;102142.91;;;8.64;73.90
79703;BME280;69172;52.352;5.006;2023-05-16T05:14:15;102148.13;;;8.65;75.24
79703;BME280;69172;52.352;5.006;2023-05-16T05:16:40;102147.63;;;8.69;73.56
79703;BME280;69172;52.352;5.006;2023-05-16T05:19:06;102148.13;;;8.75;73.68
79703;BME280;69172;52.352;5.006;2023-05-16T05:21:33;102155.31;;;8.79;74.13
79703;BME280;69172;52.352;5.006;2023-05-16T05:23:58;102150.72;;;8.85;73.25
79703;BME280;69172;52.352;5.006;2023-05-16T05:26:23;102153.66;;;8.90;72.70
79703;BME280;69172;52.352;5.006;2023-05-16T05:28:50;102149.03;;;8.96;73.36
79703;BME280;69172;52.352;5.006;2023-05-16T05:31:15;102149.28;;;8.99;72.81
79703;BME280;69172;52.352;5.006;2023-05-16T05:33:41;102151.72;;;9.08;71.69
79703;BME280;69172;52.352;5.006;2023-05-16T05:36:06;102147.31;;;9.17;71.58
79703;BME280;69172;52.352;5.006;2023-05-16T05:38:32;102152.56;;;9.28;71.30
79703;BME280;69172;52.352;5.006;2023-05-16T05:40:57;102152.66;;;9.30;70.92
79703;BME280;69172;52.352;5.006;2023-05-16T05:43:23;102161.16;;;9.29;71.60
79703;BME280;69172;52.352;5.006;2023-05-16T05:45:48;102158.72;;;9.30;71.47
79703;BME280;69172;52.352;5.006;2023-05-16T05:48:14;102169.34;;;9.35;70.60
79703;BME280;69172;52.352;5.006;2023-05-16T05:50:39;102168.72;;;9.37;71.92
79703;BME280;69172;52.352;5.006;2023-05-16T05:53:05;102167.28;;;9.41;71.83
79703;BME280;69172;52.352;5.006;2023-05-16T05:55:30;102171.09;;;9.46;71.21
79703;BME280;69172;52.352;5.006;2023-05-16T05:57:56;102167.41;;;9.42;70.63
79703;BME280;69172;52.352;5.006;2023-05-16T06:00:21;102179.47;;;9.43;69.90
79703;BME280;69172;52.352;5.006;2023-05-16T06:02:47;102174.22;;;9.42;69.11
79703;BME280;69172;52.352;5.006;2023-05-16T06:05:12;102178.31;;;9.50;69.45
79703;BME280;69172;52.352;5.006;2023-05-16T06:07:38;102174.31;;;9.53;70.17
79703;BME280;69172;52.352;5.006;2023-05-16T06:10:03;102177.50;;;9.61;69.56
79703;BME280;69172;52.352;5.006;2023-05-16T06:12:30;102178.41;;;9.62;68.62
79703;BME280;69172;52.352;5.006;2023-05-16T06:14:56;102189.16;;;9.68;70.19
79703;BME280;69172;52.352;5.006;2023-05-16T06:17:21;102187.63;;;9.70;67.93
79703;BME280;69172;52.352;5.006;2023-05-16T06:19:47;102178.84;;;9.78;69.49
79703;BME280;69172;52.352;5.006;2023-05-16T06:22:12;102181.38;;;9.88;68.36
79703;BME280;69172;52.352;5.006;2023-05-16T06:24:38;102179.78;;;10.00;68.45
79703;BME280;69172;52.352;5.006;2023-05-16T06:27:03;102182.97;;;10.07;68.35
79703;BME280;69172;52.352;5.006;2023-05-16T06:29:29;102187.44;;;10.10;68.47
79703;BME280;69172;52.352;5.006;2023-05-16T06:31:54;102181.13;;;10.16;67.50
79703;BME280;69172;52.352;5.006;2023-05-16T06:34:20;102182.81;;;10.16;66.12
79703;BME280;69172;52.352;5.006;2023-05-16T06:36:51;102185.53;;;10.07;65.30
79703;BME280;69172;52.352;5.006;2023-05-16T06:39:17;102184.63;;;10.07;66.18
79703;BME280;69172;52.352;5.006;2023-05-16T06:41:42;102193.47;;;10.10;68.03
79703;BME280;69172;52.352;5.006;2023-05-16T06:44:07;102185.50;;;10.18;67.94
79703;BME280;69172;52.352;5.006;2023-05-16T06:46:33;102188.78;;;10.27;68.25
79703;BME280;69172;52.352;5.006;2023-05-16T06:48:58;102185.91;;;10.55;67.78
79703;BME280;69172;52.352;5.006;2023-05-16T06:51:24;102195.25;;;10.76;66.50
79703;BME280;69172;52.352;5.006;2023-05-16T06:53:49;102197.88;;;10.88;65.88
79703;BME280;69172;52.352;5.006;2023-05-16T06:56:17;102209.19;;;11.02;64.59
79703;BME280;69172;52.352;5.006;2023-05-16T06:58:42;102209.41;;;10.93;63.68
79703;BME280;69172;52.352;5.006;2023-05-16T07:01:08;102203.59;;;10.96;63.98
79703;BME280;69172;52.352;5.006;2023-05-16T07:03:33;102209.06;;;10.89;63.68
79703;BME280;69172;52.352;5.006;2023-05-16T07:05:58;102206.56;;;10.79;64.29
79703;BME280;69172;52.352;5.006;2023-05-16T07:08:25;102202.81;;;10.63;64.71
79703;BME280;69172;52.352;5.006;2023-05-16T07:10:51;102210.09;;;10.69;65.13
79703;BME280;69172;52.352;5.006;2023-05-16T07:13:17;102211.47;;;10.75;63.50
79703;BME280;69172;52.352;5.006;2023-05-16T07:15:42;102210.38;;;10.84;62.82
79703;BME280;69172;52.352;5.006;2023-05-16T07:18:07;102213.31;;;10.88;63.28
79703;BME280;69172;52.352;5.006;2023-05-16T07:20:33;102217.75;;;10.79;61.28
79703;BME280;69172;52.352;5.006;2023-05-16T07:22:58;102216.13;;;10.91;62.06
79703;BME280;69172;52.352;5.006;2023-05-16T07:25:24;102214.44;;;10.92;63.23
79703;BME280;69172;52.352;5.006;2023-05-16T07:27:50;102211.97;;;10.93;63.88
79703;BME280;69172;52.352;5.006;2023-05-16T07:30:15;102214.13;;;10.99;63.24
79703;BME280;69172;52.352;5.006;2023-05-16T07:32:41;102219.72;;;11.05;62.81
79703;BME280;69172;52.352;5.006;2023-05-16T07:35:07;102217.34;;;10.96;63.35
79703;BME280;69172;52.352;5.006;2023-05-16T07:37:33;102217.91;;;10.92;62.45
79703;BME280;69172;52.352;5.006;2023-05-16T07:39:59;102221.72;;;10.97;61.94
79703;BME280;69172;52.352;5.006;2023-05-16T07:42:24;102211.44;;;11.09;62.19
79703;BME280;69172;52.352;5.006;2023-05-16T07:44:50;102216.06;;;11.13;62.68
79703;BME280;69172;52.352;5.006;2023-05-16T07:47:15;102226.25;;;11.11;61.32
79703;BME280;69172;52.352;5.006;2023-05-16T07:49:40;102226.97;;;10.99;61.86
79703;BME280;69172;52.352;5.006;2023-05-16T07:52:06;102217.41;;;10.74;62.07
79703;BME280;69172;52.352;5.006;2023-05-16T07:54:33;102217.00;;;10.92;62.38
79703;BME280;69172;52.352;5.006;2023-05-16T07:56:58;102220.06;;;10.98;61.92
79703;BME280;69172;52.352;5.006;2023-05-16T07:59:24;102224.84;;;10.93;60.87
79703;BME280;69172;52.352;5.006;2023-05-16T08:01:50;102226.56;;;11.04;61.64
79703;BME280;69172;52.352;5.006;2023-05-16T08:04:15;102222.56;;;11.19;60.81
79703;BME280;69172;52.352;5.006;2023-05-16T08:06:42;102227.19;;;11.35;59.19
79703;BME280;69172;52.352;5.006;2023-05-16T08:09:07;102224.25;;;11.42;58.88
79703;BME280;69172;52.352;5.006;2023-05-16T08:11:34;102227.41;;;11.38;57.91
79703;BME280;69172;52.352;5.006;2023-05-16T08:13:59;102222.81;;;11.34;57.45
79703;BME280;69172;52.352;5.006;2023-05-16T08:16:26;102214.06;;;11.32;58.50
79703;BME280;69172;52.352;5.006;2023-05-16T08:19:04;102225.06;;;11.41;60.42
79703;BME280;69172;52.352;5.006;2023-05-16T08:21:29;102225.84;;;11.63;61.48
79703;BME280;69172;52.352;5.006;2023-05-16T08:23:56;102233.84;;;11.78;59.98
79703;BME280;69172;52.352;5.006;2023-05-16T08:26:21;102232.78;;;11.41;59.65
79703;BME280;69172;52.352;5.006;2023-05-16T08:28:47;102240.50;;;11.53;58.31
79703;BME280;69172;52.352;5.006;2023-05-16T08:31:12;102235.59;;;11.56;58.50
79703;BME280;69172;52.352;5.006;2023-05-16T08:33:37;102217.69;;;11.57;58.32
79703;BME280;69172;52.352;5.006;2023-05-16T08:36:03;102244.31;;;11.58;59.46
79703;BME280;69172;52.352;5.006;2023-05-16T08:38:28;102233.00;;;11.56;59.46
79703;BME280;69172;52.352;5.006;2023-05-16T08:40:54;102241.53;;;11.55;59.89
79703;BME280;69172;52.352;5.006;2023-05-16T08:43:20;102246.25;;;11.60;59.29
79703;BME280;69172;52.352;5.006;2023-05-16T08:45:45;102241.91;;;11.71;58.38
79703;BME280;69172;52.352;5.006;2023-05-16T08:48:11;102234.81;;;12.15;56.48
79703;BME280;69172;52.352;5.006;2023-05-16T08:50:38;102235.88;;;12.30;57.63
79703;BME280;69172;52.352;5.006;2023-05-16T08:53:05;102244.00;;;12.23;59.39
79703;BME280;69172;52.352;5.006;2023-05-16T08:55:32;102250.75;;;11.86;60.28
79703;BME280;69172;52.352;5.006;2023-05-16T08:57:59;102248.59;;;11.46;61.32
79703;BME280;69172;52.352;5.006;2023-05-16T09:00:25;102250.03;;;11.42;60.70
79703;BME280;69172;52.352;5.006;2023-05-16T09:02:51;102252.16;;;11.48;61.49
79703;BME280;69172;52.352;5.006;2023-05-16T09:05:17;102244.53;;;11.61;61.42
79703;BME280;69172;52.352;5.006;2023-05-16T09:07:43;102240.66;;;11.77;60.92
79703;BME280;69172;52.352;5.006;2023-05-16T09:10:10;102240.75;;;11.90;59.91
79703;BME280;69172;52.352;5.006;2023-05-16T09:12:36;102237.81;;;12.21;59.84
79703;BME280;69172;52.352;5.006;2023-05-16T09:15:06;102244.41;;;12.29;60.31
79703;BME280;69172;52.352;5.006;2023-05-16T09:17:45;102242.34;;;12.48;59.03
79703;BME280;69172;52.352;5.006;2023-05-16T09:20:15;102245.78;;;12.12;58.09
79703;BME280;69172;52.352;5.006;2023-05-16T09:22:53;102244.09;;;12.24;58.96
79703;BME280;69172;52.352;5.006;2023-05-16T09:25:20;102241.97;;;12.07;58.25
79703;BME280;69172;52.352;5.006;2023-05-16T09:27:46;102237.19;;;11.77;61.11
79703;BME280;69172;52.352;5.006;2023-05-16T09:30:26;102238.22;;;11.79;59.75
79703;BME280;69172;52.352;5.006;2023-05-16T09:32:52;102250.06;;;12.00;58.85
79703;BME280;69172;52.352;5.006;2023-05-16T09:35:23;102246.00;;;12.15;56.67
79703;BME280;69172;52.352;5.006;2023-05-16T09:37:49;102247.28;;;12.45;57.20
79703;BME280;69172;52.352;5.006;2023-05-16T09:40:20;102247.47;;;12.60;57.85
79703;BME280;69172;52.352;5.006;2023-05-16T09:42:46;102242.88;;;12.55;59.29
79703;BME280;69172;52.352;5.006;2023-05-16T09:45:12;102256.50;;;12.41;55.85
79703;BME280;69172;52.352;5.006;2023-05-16T09:47:38;102258.53;;;12.34;56.04
79703;BME280;69172;52.352;5.006;2023-05-16T09:50:12;102244.84;;;12.35;56.49
79703;BME280;69172;52.352;5.006;2023-05-16T09:52:37;102249.63;;;12.42;55.65
79703;BME280;69172;52.352;5.006;2023-05-16T09:55:06;102262.59;;;12.19;54.29
79703;BME280;69172;52.352;5.006;2023-05-16T09:57:32;102252.50;;;12.33;53.46
79703;BME280;69172;52.352;5.006;2023-05-16T09:59:58;102257.59;;;12.45;52.96
79703;BME280;69172;52.352;5.006;2023-05-16T10:02:26;102245.50;;;12.44;54.46
79703;BME280;69172;52.352;5.006;2023-05-16T10:04:52;102256.66;;;12.56;54.72
79703;BME280;69172;52.352;5.006;2023-05-16T10:07:18;102248.84;;;12.54;52.36
79703;BME280;69172;52.352;5.006;2023-05-16T10:09:46;102253.41;;;12.83;53.95
79703;BME280;69172;52.352;5.006;2023-05-16T10:12:14;102255.66;;;12.90;52.62
79703;BME280;69172;52.352;5.006;2023-05-16T10:14:40;102253.88;;;13.14;53.34
79703;BME280;69172;52.352;5.006;2023-05-16T10:17:07;102268.69;;;12.80;52.86
79703;BME280;69172;52.352;5.006;2023-05-16T10:19:37;102260.59;;;12.63;53.64
79703;BME280;69172;52.352;5.006;2023-05-16T10:22:04;102258.69;;;12.60;53.50
79703;BME280;69172;52.352;5.006;2023-05-16T10:24:57;102258.03;;;12.87;53.68
79703;BME280;69172;52.352;5.006;2023-05-16T10:27:25;102258.81;;;13.11;52.39
79703;BME280;69172;52.352;5.006;2023-05-16T10:29:51;102266.09;;;13.17;50.98
79703;BME280;69172;52.352;5.006;2023-05-16T10:32:17;102255.09;;;13.32;52.25
79703;BME280;69172;52.352;5.006;2023-05-16T10:34:44;102255.53;;;13.64;50.73
79703;BME280;69172;52.352;5.006;2023-05-16T10:37:10;102260.69;;;13.64;50.23
79703;BME280;69172;52.352;5.006;2023-05-16T10:39:37;102250.38;;;13.64;48.32
79703;BME280;69172;52.352;5.006;2023-05-16T10:42:05;102250.69;;;13.18;51.60
79703;BME280;69172;52.352;5.006;2023-05-16T10:44:31;102247.47;;;13.34;51.96
79703;BME280;69172;52.352;5.006;2023-05-16T10:47:02;102245.25;;;13.27;50.63
79703;BME280;69172;52.352;5.006;2023-05-16T10:49:30;102256.34;;;13.50;49.63
79703;BME280;69172;52.352;5.006;2023-05-16T10:54:48;102259.50;;;13.59;50.86
79703;BME280;69172;52.352;5.006;2023-05-16T10:57:17;102246.06;;;13.39;51.77
79703;BME280;69172;52.352;5.006;2023-05-16T10:59:46;102252.16;;;13.39;52.37
79703;BME280;69172;52.352;5.006;2023-05-16T11:02:23;102258.44;;;13.56;51.06
79703;BME280;69172;52.352;5.006;2023-05-16T11:04:52;102243.00;;;13.44;50.57
79703;BME280;69172;52.352;5.006;2023-05-16T11:07:20;102253.63;;;13.49;52.79
79703;BME280;69172;52.352;5.006;2023-05-16T11:10:13;102262.56;;;13.28;52.04
79703;BME280;69172;52.352;5.006;2023-05-16T11:12:49;102248.19;;;13.57;52.47
79703;BME280;69172;52.352;5.006;2023-05-16T11:15:30;102248.19;;;13.44;53.42
79703;BME280;69172;52.352;5.006;2023-05-16T11:18:12;102250.56;;;13.41;52.25
79703;BME280;69172;52.352;5.006;2023-05-16T11:20:39;102250.69;;;13.69;52.78
79703;BME280;69172;52.352;5.006;2023-05-16T11:23:18;102246.69;;;13.74;52.62
79703;BME280;69172;52.352;5.006;2023-05-16T11:25:58;102247.59;;;13.75;51.77
79703;BME280;69172;52.352;5.006;2023-05-16T11:28:26;102245.38;;;13.41;52.41
79703;BME280;69172;52.352;5.006;2023-05-16T11:30:53;102256.25;;;13.75;52.96
79703;BME280;69172;52.352;5.006;2023-05-16T11:33:21;102251.84;;;14.13;49.59
79703;BME280;69172;52.352;5.006;2023-05-16T11:36:03;102257.94;;;13.75;48.21
79703;BME280;69172;52.352;5.006;2023-05-16T11:38:30;102254.66;;;13.90;48.13
79703;BME280;69172;52.352;5.006;2023-05-16T11:41:07;102264.31;;;13.66;49.60
79703;BME280;69172;52.352;5.006;2023-05-16T11:43:40;102272.16;;;13.94;50.41
79703;BME280;69172;52.352;5.006;2023-05-16T11:46:05;102260.63;;;13.89;47.75
79703;BME280;69172;52.352;5.006;2023-05-16T11:48:32;102257.72;;;13.98;46.91
79703;BME280;69172;52.352;5.006;2023-05-16T11:50:57;102254.94;;;13.82;47.68
79703;BME280;69172;52.352;5.006;2023-05-16T11:53:24;102257.03;;;14.00;48.06
79703;BME280;69172;52.352;5.006;2023-05-16T11:55:49;102263.31;;;13.78;49.32
79703;BME280;69172;52.352;5.006;2023-05-16T11:58:22;102258.25;;;13.66;49.12
79703;BME280;69172;52.352;5.006;2023-05-16T12:00:49;102256.56;;;13.80;49.72
79703;BME280;69172;52.352;5.006;2023-05-16T12:03:17;102263.72;;;13.97;47.84
79703;BME280;69172;52.352;5.006;2023-05-16T12:06:06;102256.41;;;14.17;47.65
79703;BME280;69172;52.352;5.006;2023-05-16T12:08:52;102245.50;;;14.35;47.69
79703;BME280;69172;52.352;5.006;2023-05-16T12:11:18;102250.50;;;14.46;47.39
79703;BME280;69172;52.352;5.006;2023-05-16T12:13:46;102248.75;;;14.45;46.58
79703;BME280;69172;52.352;5.006;2023-05-16T12:16:11;102252.84;;;14.15;48.01
79703;BME280;69172;52.352;5.006;2023-05-16T12:18:37;102255.06;;;13.96;48.23
79703;BME280;69172;52.352;5.006;2023-05-16T12:21:04;102258.22;;;13.92;50.01
79703;BME280;69172;52.352;5.006;2023-05-16T12:23:31;102255.53;;;14.17;49.33
79703;BME280;69172;52.352;5.006;2023-05-16T12:25:57;102255.31;;;14.14;48.99
79703;BME280;69172;52.352;5.006;2023-05-16T12:28:30;102250.16;;;14.01;48.26
79703;BME280;69172;52.352;5.006;2023-05-16T12:30:56;102247.41;;;13.85;49.03
79703;BME280;69172;52.352;5.006;2023-05-16T12:33:21;102268.59;;;13.79;48.33
79703;BME280;69172;52.352;5.006;2023-05-16T12:35:46;102268.56;;;13.66;49.39
79703;BME280;69172;52.352;5.006;2023-05-16T12:38:13;102262.47;;;13.39;49.06
79703;BME280;69172;52.352;5.006;2023-05-16T12:40:41;102263.00;;;13.47;49.56
79703;BME280;69172;52.352;5.006;2023-05-16T12:43:14;102264.09;;;13.50;48.74
79703;BME280;69172;52.352;5.006;2023-05-16T12:45:40;102268.63;;;13.41;48.37
79703;BME280;69172;52.352;5.006;2023-05-16T12:48:12;102266.47;;;13.60;48.37
79703;BME280;69172;52.352;5.006;2023-05-16T12:50:39;102264.81;;;13.61;48.47
79703;BME280;69172;52.352;5.006;2023-05-16T12:53:10;102260.31;;;13.85;49.44
79703;BME280;69172;52.352;5.006;2023-05-16T12:55:37;102261.50;;;13.90;49.14
79703;BME280;69172;52.352;5.006;2023-05-16T12:58:02;102252.56;;;13.71;47.69
79703;BME280;69172;52.352;5.006;2023-05-16T13:00:28;102256.06;;;13.85;48.05
79703;BME280;69172;52.352;5.006;2023-05-16T13:02:53;102262.69;;;13.95;48.12
79703;BME280;69172;52.352;5.006;2023-05-16T13:05:19;102256.56;;;13.80;48.81